sensor_id;sensor_type;location;lat;lon;timestamp;pressure;altitude;pressure_sealevel;temperature;humidity
77889;BME280;67082;41.704;44.768;2023-02-08T00:01:28;95180.88;;;5.26;48.26
77889;BME280;67082;41.704;44.768;2023-02-08T00:03:55;95172.19;;;5.28;48.51
77889;BME280;67082;41.704;44.768;2023-02-08T00:06:24;95172.13;;;4.99;48.55
77889;BME280;67082;41.704;44.768;2023-02-08T00:08:52;95151.34;;;5.14;48.52
77889;BME280;67082;41.704;44.768;2023-02-08T00:11:20;95163.59;;;4.94;49.21
77889;BME280;67082;41.704;44.768;2023-02-08T00:13:48;95140.78;;;4.81;48.49
77889;BME280;67082;41.704;44.768;2023-02-08T00:16:17;95143.44;;;4.84;48.26
77889;BME280;67082;41.704;44.768;2023-02-08T00:18:45;95137.34;;;4.93;47.88
77889;BME280;67082;41.704;44.768;2023-02-08T00:21:15;95134.63;;;4.93;47.81
77889;BME280;67082;41.704;44.768;2023-02-08T00:23:44;95132.75;;;4.90;47.41
77889;BME280;67082;41.704;44.768;2023-02-08T00:26:13;95148.31;;;4.77;47.52
77889;BME280;67082;41.704;44.768;2023-02-08T00:28:42;95139.13;;;4.67;48.33
77889;BME280;67082;41.704;44.768;2023-02-08T00:31:11;95131.09;;;4.76;47.99
77889;BME280;67082;41.704;44.768;2023-02-08T00:33:40;95158.72;;;4.69;48.39
77889;BME280;67082;41.704;44.768;2023-02-08T00:36:11;95149.31;;;4.51;48.17
77889;BME280;67082;41.704;44.768;2023-02-08T00:38:41;95158.84;;;4.62;49.00
77889;BME280;67082;41.704;44.768;2023-02-08T00:41:09;95152.53;;;4.65;48.82
77889;BME280;67082;41.704;44.768;2023-02-08T00:43:38;95136.47;;;4.64;48.79
77889;BME280;67082;41.704;44.768;2023-02-08T00:46:06;95133.66;;;4.67;48.24
77889;BME280;67082;41.704;44.768;2023-02-08T00:48:36;95157.91;;;4.69;48.89
77889;BME280;67082;41.704;44.768;2023-02-08T00:51:10;95161.28;;;4.76;48.15
77889;BME280;67082;41.704;44.768;2023-02-08T00:53:43;95157.53;;;4.86;47.72
77889;BME280;67082;41.704;44.768;2023-02-08T00:56:13;95179.66;;;4.60;47.90
77889;BME280;67082;41.704;44.768;2023-02-08T00:58:42;95168.56;;;4.67;48.41
77889;BME280;67082;41.704;44.768;2023-02-08T01:01:10;95162.56;;;4.72;48.28
77889;BME280;67082;41.704;44.768;2023-02-08T01:03:40;95164.28;;;4.66;47.79
77889;BME280;67082;41.704;44.768;2023-02-08T01:06:12;95134.34;;;4.71;47.83
77889;BME280;67082;41.704;44.768;2023-02-08T01:08:41;95163.19;;;4.95;47.09
77889;BME280;67082;41.704;44.768;2023-02-08T01:11:15;95177.31;;;4.78;47.69
77889;BME280;67082;41.704;44.768;2023-02-08T01:13:45;95175.13;;;4.53;47.86
77889;BME280;67082;41.704;44.768;2023-02-08T01:16:16;95160.16;;;4.74;47.93
77889;BME280;67082;41.704;44.768;2023-02-08T01:18:47;95163.94;;;4.80;46.94
77889;BME280;67082;41.704;44.768;2023-02-08T01:21:21;95164.19;;;4.69;46.64
77889;BME280;67082;41.704;44.768;2023-02-08T01:23:49;95177.88;;;4.53;47.68
77889;BME280;67082;41.704;44.768;2023-02-08T01:26:19;95184.56;;;4.52;47.80
77889;BME280;67082;41.704;44.768;2023-02-08T01:28:48;95183.31;;;4.73;47.21
77889;BME280;67082;41.704;44.768;2023-02-08T01:31:20;95192.88;;;4.65;47.59
77889;BME280;67082;41.704;44.768;2023-02-08T01:33:49;95220.88;;;4.76;46.90
77889;BME280;67082;41.704;44.768;2023-02-08T01:36:17;95189.56;;;4.57;47.23
77889;BME280;67082;41.704;44.768;2023-02-08T01:38:45;95229.81;;;4.80;47.39
77889;BME280;67082;41.704;44.768;2023-02-08T01:41:18;95203.59;;;4.59;46.77
77889;BME280;67082;41.704;44.768;2023-02-08T01:46:46;95215.38;;;4.76;47.00
77889;BME280;67082;41.704;44.768;2023-02-08T01:49:26;95237.47;;;4.88;46.44
77889;BME280;67082;41.704;44.768;2023-02-08T01:52:12;95239.59;;;4.61;46.54
77889;BME280;67082;41.704;44.768;2023-02-08T01:54:46;95232.38;;;4.51;47.03
77889;BME280;67082;41.704;44.768;2023-02-08T01:57:19;95225.63;;;4.56;46.25
77889;BME280;67082;41.704;44.768;2023-02-08T02:00:02;95223.19;;;4.77;46.00
77889;BME280;67082;41.704;44.768;2023-02-08T02:02:40;95247.19;;;4.73;45.38
77889;BME280;67082;41.704;44.768;2023-02-08T02:05:09;95219.31;;;4.75;45.30
77889;BME280;67082;41.704;44.768;2023-02-08T02:07:39;95262.75;;;4.80;45.01
77889;BME280;67082;41.704;44.768;2023-02-08T02:12:48;95253.47;;;4.74;45.68
77889;BME280;67082;41.704;44.768;2023-02-08T02:15:17;95261.03;;;4.86;44.65
77889;BME280;67082;41.704;44.768;2023-02-08T02:17:45;95250.56;;;4.81;44.63
77889;BME280;67082;41.704;44.768;2023-02-08T02:20:15;95259.72;;;4.74;44.62
77889;BME280;67082;41.704;44.768;2023-02-08T02:26:24;95258.69;;;4.49;44.83
77889;BME280;67082;41.704;44.768;2023-02-08T02:42:46;95264.50;;;4.90;43.94
77889;BME280;67082;41.704;44.768;2023-02-08T02:45:52;95263.38;;;4.87;44.24
77889;BME280;67082;41.704;44.768;2023-02-08T02:50:58;95263.88;;;4.63;44.82
77889;BME280;67082;41.704;44.768;2023-02-08T02:53:30;95270.50;;;4.65;45.12
77889;BME280;67082;41.704;44.768;2023-02-08T02:56:17;95276.88;;;4.78;45.39
77889;BME280;67082;41.704;44.768;2023-02-08T02:58:49;95279.22;;;4.60;45.33
77889;BME280;67082;41.704;44.768;2023-02-08T03:01:22;95292.72;;;4.71;45.44
77889;BME280;67082;41.704;44.768;2023-02-08T03:03:54;95281.75;;;4.71;45.32
77889;BME280;67082;41.704;44.768;2023-02-08T03:09:34;95294.69;;;4.70;44.73
77889;BME280;67082;41.704;44.768;2023-02-08T03:14:58;95287.13;;;4.94;44.76
77889;BME280;67082;41.704;44.768;2023-02-08T03:20:24;95300.03;;;4.58;45.14
77889;BME280;67082;41.704;44.768;2023-02-08T03:31:42;95316.72;;;4.86;44.14
77889;BME280;67082;41.704;44.768;2023-02-08T03:34:19;95318.13;;;4.75;44.18
77889;BME280;67082;41.704;44.768;2023-02-08T03:36:54;95298.72;;;4.66;44.51
77889;BME280;67082;41.704;44.768;2023-02-08T03:39:27;95326.41;;;4.91;44.60
77889;BME280;67082;41.704;44.768;2023-02-08T03:41:59;95332.47;;;4.82;45.07
77889;BME280;67082;41.704;44.768;2023-02-08T03:44:36;95335.06;;;4.89;45.25
77889;BME280;67082;41.704;44.768;2023-02-08T03:47:22;95350.41;;;4.87;44.32
77889;BME280;67082;41.704;44.768;2023-02-08T03:49:54;95348.09;;;4.85;44.04
77889;BME280;67082;41.704;44.768;2023-02-08T03:52:25;95351.94;;;4.88;44.73
77889;BME280;67082;41.704;44.768;2023-02-08T03:55:08;95342.25;;;4.83;44.17
77889;BME280;67082;41.704;44.768;2023-02-08T03:57:49;95353.66;;;4.82;44.39
77889;BME280;67082;41.704;44.768;2023-02-08T04:00:20;95371.47;;;4.93;44.49
77889;BME280;67082;41.704;44.768;2023-02-08T04:03:01;95378.22;;;4.89;44.11
77889;BME280;67082;41.704;44.768;2023-02-08T04:05:33;95365.34;;;4.86;43.83
77889;BME280;67082;41.704;44.768;2023-02-08T04:08:02;95382.44;;;4.74;44.21
77889;BME280;67082;41.704;44.768;2023-02-08T04:10:30;95383.50;;;4.99;44.30
77889;BME280;67082;41.704;44.768;2023-02-08T04:12:58;95391.16;;;4.88;44.80
77889;BME280;67082;41.704;44.768;2023-02-08T04:15:26;95400.38;;;4.98;44.25
77889;BME280;67082;41.704;44.768;2023-02-08T04:17:55;95399.91;;;5.03;42.96
77889;BME280;67082;41.704;44.768;2023-02-08T04:20:23;95404.47;;;5.09;43.06
77889;BME280;67082;41.704;44.768;2023-02-08T04:22:51;95402.16;;;5.08;43.47
77889;BME280;67082;41.704;44.768;2023-02-08T04:25:20;95416.22;;;4.90;43.13
77889;BME280;67082;41.704;44.768;2023-02-08T04:27:48;95424.03;;;4.92;43.55
77889;BME280;67082;41.704;44.768;2023-02-08T04:30:16;95425.38;;;4.84;43.24
77889;BME280;67082;41.704;44.768;2023-02-08T04:32:44;95419.41;;;4.89;43.92
77889;BME280;67082;41.704;44.768;2023-02-08T04:35:12;95442.06;;;4.93;43.95
77889;BME280;67082;41.704;44.768;2023-02-08T04:37:40;95441.06;;;5.03;43.81
77889;BME280;67082;41.704;44.768;2023-02-08T04:40:09;95442.53;;;4.88;43.48
77889;BME280;67082;41.704;44.768;2023-02-08T04:42:37;95444.94;;;4.86;43.35
77889;BME280;67082;41.704;44.768;2023-02-08T04:45:05;95452.69;;;5.10;43.41
77889;BME280;67082;41.704;44.768;2023-02-08T04:47:33;95444.94;;;5.05;43.60
77889;BME280;67082;41.704;44.768;2023-02-08T04:50:02;95441.34;;;5.08;42.94
77889;BME280;67082;41.704;44.768;2023-02-08T04:52:30;95468.19;;;5.01;43.19
77889;BME280;67082;41.704;44.768;2023-02-08T04:54:58;95454.47;;;5.01;43.05
77889;BME280;67082;41.704;44.768;2023-02-08T04:57:26;95424.31;;;4.78;43.29
77889;BME280;67082;41.704;44.768;2023-02-08T04:59:54;95450.78;;;4.88;43.17
77889;BME280;67082;41.704;44.768;2023-02-08T05:02:26;95455.28;;;4.98;43.03
77889;BME280;67082;41.704;44.768;2023-02-08T05:04:54;95472.03;;;4.84;42.50
77889;BME280;67082;41.704;44.768;2023-02-08T05:07:22;95461.13;;;4.80;42.87
77889;BME280;67082;41.704;44.768;2023-02-08T05:09:50;95443.09;;;4.99;43.25
77889;BME280;67082;41.704;44.768;2023-02-08T05:12:18;95465.44;;;5.01;43.54
77889;BME280;67082;41.704;44.768;2023-02-08T05:14:46;95472.00;;;5.07;42.62
77889;BME280;67082;41.704;44.768;2023-02-08T05:17:14;95480.78;;;4.98;42.98
77889;BME280;67082;41.704;44.768;2023-02-08T05:19:42;95471.72;;;5.21;43.10
77889;BME280;67082;41.704;44.768;2023-02-08T05:22:10;95476.78;;;5.22;42.79
77889;BME280;67082;41.704;44.768;2023-02-08T05:24:38;95473.25;;;5.02;42.13
77889;BME280;67082;41.704;44.768;2023-02-08T05:27:06;95475.84;;;5.29;41.98
77889;BME280;67082;41.704;44.768;2023-02-08T05:29:34;95486.28;;;5.37;41.74
77889;BME280;67082;41.704;44.768;2023-02-08T05:32:02;95487.47;;;5.56;42.00
77889;BME280;67082;41.704;44.768;2023-02-08T05:34:31;95486.63;;;5.78;41.29
77889;BME280;67082;41.704;44.768;2023-02-08T05:36:59;95494.38;;;5.83;41.48
77889;BME280;67082;41.704;44.768;2023-02-08T05:39:27;95488.81;;;5.87;40.92
77889;BME280;67082;41.704;44.768;2023-02-08T05:41:55;95478.75;;;5.80;41.53
77889;BME280;67082;41.704;44.768;2023-02-08T05:44:23;95485.91;;;5.94;40.97
77889;BME280;67082;41.704;44.768;2023-02-08T05:46:51;95497.56;;;5.82;41.10
77889;BME280;67082;41.704;44.768;2023-02-08T05:49:19;95493.31;;;5.58;41.62
77889;BME280;67082;41.704;44.768;2023-02-08T05:51:47;95493.38;;;5.74;41.98
77889;BME280;67082;41.704;44.768;2023-02-08T05:54:17;95491.56;;;5.87;42.09
77889;BME280;67082;41.704;44.768;2023-02-08T05:56:44;95502.97;;;5.85;41.76
77889;BME280;67082;41.704;44.768;2023-02-08T05:59:13;95501.50;;;5.81;42.00
77889;BME280;67082;41.704;44.768;2023-02-08T06:01:41;95491.31;;;5.78;41.93
77889;BME280;67082;41.704;44.768;2023-02-08T06:04:09;95505.91;;;5.75;41.88
77889;BME280;67082;41.704;44.768;2023-02-08T06:06:37;95484.94;;;5.84;41.87
77889;BME280;67082;41.704;44.768;2023-02-08T06:09:05;95503.44;;;6.00;42.04
77889;BME280;67082;41.704;44.768;2023-02-08T06:11:33;95496.41;;;5.79;42.21
77889;BME280;67082;41.704;44.768;2023-02-08T06:14:03;95506.63;;;5.98;42.16
77889;BME280;67082;41.704;44.768;2023-02-08T06:16:31;95500.47;;;6.26;41.80
77889;BME280;67082;41.704;44.768;2023-02-08T06:18:59;95516.34;;;5.83;42.61
77889;BME280;67082;41.704;44.768;2023-02-08T06:21:27;95509.28;;;6.02;42.49
77889;BME280;67082;41.704;44.768;2023-02-08T06:23:56;95507.06;;;6.13;42.52
77889;BME280;67082;41.704;44.768;2023-02-08T06:26:23;95505.53;;;6.12;42.59
77889;BME280;67082;41.704;44.768;2023-02-08T06:28:52;95509.44;;;5.95;42.15
77889;BME280;67082;41.704;44.768;2023-02-08T06:31:20;95506.13;;;6.03;42.42
77889;BME280;67082;41.704;44.768;2023-02-08T06:33:48;95506.81;;;6.23;42.05
77889;BME280;67082;41.704;44.768;2023-02-08T06:36:16;95513.44;;;6.10;42.65
77889;BME280;67082;41.704;44.768;2023-02-08T06:38:45;95514.31;;;6.23;42.69
77889;BME280;67082;41.704;44.768;2023-02-08T06:41:13;95519.03;;;6.22;42.31
77889;BME280;67082;41.704;44.768;2023-02-08T06:43:41;95523.28;;;6.43;42.94
77889;BME280;67082;41.704;44.768;2023-02-08T06:46:09;95517.59;;;6.50;41.92
77889;BME280;67082;41.704;44.768;2023-02-08T06:48:37;95526.38;;;6.29;43.00
77889;BME280;67082;41.704;44.768;2023-02-08T06:51:06;95510.38;;;6.40;41.87
77889;BME280;67082;41.704;44.768;2023-02-08T06:53:34;95525.66;;;6.25;42.03
77889;BME280;67082;41.704;44.768;2023-02-08T06:56:01;95520.34;;;6.50;41.96
77889;BME280;67082;41.704;44.768;2023-02-08T06:58:30;95529.22;;;6.41;41.82
77889;BME280;67082;41.704;44.768;2023-02-08T07:00:58;95522.16;;;6.24;42.31
77889;BME280;67082;41.704;44.768;2023-02-08T07:03:27;95496.47;;;6.63;42.19
77889;BME280;67082;41.704;44.768;2023-02-08T07:05:55;95537.06;;;6.75;42.72
77889;BME280;67082;41.704;44.768;2023-02-08T07:08:32;95520.19;;;6.57;43.33
77889;BME280;67082;41.704;44.768;2023-02-08T07:11:05;95506.78;;;6.59;42.95
77889;BME280;67082;41.704;44.768;2023-02-08T07:13:35;95526.97;;;6.84;42.76
77889;BME280;67082;41.704;44.768;2023-02-08T07:16:05;95529.97;;;7.06;42.42
77889;BME280;67082;41.704;44.768;2023-02-08T07:18:34;95533.44;;;6.78;42.95
77889;BME280;67082;41.704;44.768;2023-02-08T07:21:02;95531.22;;;6.57;42.69
77889;BME280;67082;41.704;44.768;2023-02-08T07:23:31;95532.56;;;6.65;42.67
77889;BME280;67082;41.704;44.768;2023-02-08T07:26:10;95552.00;;;6.42;44.24
77889;BME280;67082;41.704;44.768;2023-02-08T07:28:39;95550.47;;;6.57;43.76
77889;BME280;67082;41.704;44.768;2023-02-08T07:31:13;95550.13;;;6.87;43.03
77889;BME280;67082;41.704;44.768;2023-02-08T07:33:42;95539.63;;;6.82;42.88
77889;BME280;67082;41.704;44.768;2023-02-08T07:36:10;95546.53;;;6.74;43.27
77889;BME280;67082;41.704;44.768;2023-02-08T07:38:39;95551.41;;;6.66;43.57
77889;BME280;67082;41.704;44.768;2023-02-08T07:41:09;95574.19;;;6.67;43.94
77889;BME280;67082;41.704;44.768;2023-02-08T07:43:40;95564.69;;;6.71;43.12
77889;BME280;67082;41.704;44.768;2023-02-08T07:46:13;95547.81;;;6.53;43.29
77889;BME280;67082;41.704;44.768;2023-02-08T07:48:42;95579.56;;;6.74;43.12
77889;BME280;67082;41.704;44.768;2023-02-08T07:51:11;95573.34;;;6.54;43.17
77889;BME280;67082;41.704;44.768;2023-02-08T07:53:40;95576.19;;;6.50;43.44
77889;BME280;67082;41.704;44.768;2023-02-08T07:56:08;95561.81;;;6.59;43.52
77889;BME280;67082;41.704;44.768;2023-02-08T07:58:37;95579.03;;;6.63;43.02
77889;BME280;67082;41.704;44.768;2023-02-08T08:01:05;95569.22;;;6.78;43.22
77889;BME280;67082;41.704;44.768;2023-02-08T08:03:50;95591.94;;;6.66;42.43
77889;BME280;67082;41.704;44.768;2023-02-08T08:06:19;95580.59;;;6.64;42.46
77889;BME280;67082;41.704;44.768;2023-02-08T08:08:48;95570.00;;;6.78;42.90
77889;BME280;67082;41.704;44.768;2023-02-08T08:11:17;95575.06;;;6.64;42.28
77889;BME280;67082;41.704;44.768;2023-02-08T08:13:46;95584.03;;;6.68;41.54
77889;BME280;67082;41.704;44.768;2023-02-08T08:16:14;95572.94;;;6.71;40.99
77889;BME280;67082;41.704;44.768;2023-02-08T08:18:42;95604.59;;;6.79;40.54
77889;BME280;67082;41.704;44.768;2023-02-08T08:21:11;95585.06;;;6.58;41.08
77889;BME280;67082;41.704;44.768;2023-02-08T08:23:39;95573.88;;;6.81;40.62
77889;BME280;67082;41.704;44.768;2023-02-08T08:26:12;95575.34;;;6.85;41.27
77889;BME280;67082;41.704;44.768;2023-02-08T08:28:42;95557.69;;;6.67;40.74
77889;BME280;67082;41.704;44.768;2023-02-08T08:31:14;95589.91;;;7.02;40.76
77889;BME280;67082;41.704;44.768;2023-02-08T08:33:44;95580.06;;;7.17;40.83
77889;BME280;67082;41.704;44.768;2023-02-08T08:36:12;95579.63;;;6.86;40.96
77889;BME280;67082;41.704;44.768;2023-02-08T08:38:40;95572.38;;;7.24;41.30
77889;BME280;67082;41.704;44.768;2023-02-08T08:41:13;95589.91;;;7.02;41.57
77889;BME280;67082;41.704;44.768;2023-02-08T08:43:44;95581.69;;;7.14;41.12
77889;BME280;67082;41.704;44.768;2023-02-08T08:46:13;95574.53;;;7.17;42.00
77889;BME280;67082;41.704;44.768;2023-02-08T08:48:43;95576.38;;;7.07;42.54
77889;BME280;67082;41.704;44.768;2023-02-08T08:51:13;95596.06;;;7.38;41.61
77889;BME280;67082;41.704;44.768;2023-02-08T08:53:41;95585.06;;;7.22;42.47
77889;BME280;67082;41.704;44.768;2023-02-08T08:56:09;95585.03;;;7.38;42.72
77889;BME280;67082;41.704;44.768;2023-02-08T08:58:37;95578.22;;;7.26;41.67
77889;BME280;67082;41.704;44.768;2023-02-08T09:01:05;95577.28;;;7.33;40.87
77889;BME280;67082;41.704;44.768;2023-02-08T09:03:35;95572.78;;;7.39;40.33
77889;BME280;67082;41.704;44.768;2023-02-08T09:06:03;95577.06;;;7.11;40.40
77889;BME280;67082;41.704;44.768;2023-02-08T09:08:31;95568.63;;;7.02;40.79
77889;BME280;67082;41.704;44.768;2023-02-08T09:11:08;95562.28;;;7.34;40.92
77889;BME280;67082;41.704;44.768;2023-02-08T09:13:42;95560.47;;;7.43;40.63
77889;BME280;67082;41.704;44.768;2023-02-08T09:16:15;95567.44;;;7.48;40.95
77889;BME280;67082;41.704;44.768;2023-02-08T09:18:44;95562.16;;;7.53;41.20
77889;BME280;67082;41.704;44.768;2023-02-08T09:21:15;95581.34;;;7.28;41.67
77889;BME280;67082;41.704;44.768;2023-02-08T09:23:43;95574.34;;;7.24;41.48
77889;BME280;67082;41.704;44.768;2023-02-08T09:26:16;95575.16;;;7.24;41.13
77889;BME280;67082;41.704;44.768;2023-02-08T09:28:45;95556.44;;;7.48;41.31
77889;BME280;67082;41.704;44.768;2023-02-08T09:31:25;95571.97;;;7.54;40.63
77889;BME280;67082;41.704;44.768;2023-02-08T09:33:56;95570.34;;;7.57;40.75
77889;BME280;67082;41.704;44.768;2023-02-08T09:36:27;95579.31;;;7.45;40.38
77889;BME280;67082;41.704;44.768;2023-02-08T09:38:59;95572.19;;;7.47;40.23
77889;BME280;67082;41.704;44.768;2023-02-08T09:42:12;95575.00;;;7.60;39.72
77889;BME280;67082;41.704;44.768;2023-02-08T09:44:49;95577.28;;;7.61;40.41
77889;BME280;67082;41.704;44.768;2023-02-08T09:47:36;95584.28;;;7.66;39.04
77889;BME280;67082;41.704;44.768;2023-02-08T09:50:33;95588.56;;;7.95;38.61
77889;BME280;67082;41.704;44.768;2023-02-08T09:53:09;95583.56;;;7.78;39.72
77889;BME280;67082;41.704;44.768;2023-02-08T09:55:54;95589.00;;;7.37;39.33
77889;BME280;67082;41.704;44.768;2023-02-08T09:58:42;95592.41;;;7.57;39.69
77889;BME280;67082;41.704;44.768;2023-02-08T10:01:24;95579.69;;;7.88;38.94
77889;BME280;67082;41.704;44.768;2023-02-08T10:03:58;95598.97;;;8.04;39.57
77889;BME280;67082;41.704;44.768;2023-02-08T10:06:28;95603.72;;;7.46;41.20
77889;BME280;67082;41.704;44.768;2023-02-08T10:08:58;95600.00;;;7.81;40.33
77889;BME280;67082;41.704;44.768;2023-02-08T10:22:16;95611.66;;;7.73;39.96
77889;BME280;67082;41.704;44.768;2023-02-08T10:33:36;95601.59;;;7.95;40.57
77889;BME280;67082;41.704;44.768;2023-02-08T10:36:14;95588.19;;;7.81;40.54
77889;BME280;67082;41.704;44.768;2023-02-08T10:38:48;95611.47;;;7.80;40.48
77889;BME280;67082;41.704;44.768;2023-02-08T10:41:22;95601.13;;;7.84;40.36
77889;BME280;67082;41.704;44.768;2023-02-08T10:47:12;95616.34;;;7.88;39.61
77889;BME280;67082;41.704;44.768;2023-02-08T10:50:28;95609.72;;;7.86;38.79
77889;BME280;67082;41.704;44.768;2023-02-08T10:53:04;95609.63;;;7.61;39.34
77889;BME280;67082;41.704;44.768;2023-02-08T10:55:35;95631.69;;;7.61;39.86
77889;BME280;67082;41.704;44.768;2023-02-08T10:58:15;95626.38;;;7.22;40.41
77889;BME280;67082;41.704;44.768;2023-02-08T11:00:49;95622.88;;;7.66;39.29
77889;BME280;67082;41.704;44.768;2023-02-08T11:03:28;95630.25;;;7.85;39.20
77889;BME280;67082;41.704;44.768;2023-02-08T11:05:59;95617.72;;;7.52;40.43
77889;BME280;67082;41.704;44.768;2023-02-08T11:08:29;95630.63;;;7.99;39.74
77889;BME280;67082;41.704;44.768;2023-02-08T11:11:09;95645.97;;;7.72;38.83
77889;BME280;67082;41.704;44.768;2023-02-08T11:13:42;95623.72;;;7.34;40.33
77889;BME280;67082;41.704;44.768;2023-02-08T11:16:25;95637.16;;;8.05;38.86
77889;BME280;67082;41.704;44.768;2023-02-08T11:18:56;95632.06;;;8.04;39.46
77889;BME280;67082;41.704;44.768;2023-02-08T11:21:48;95630.31;;;8.10;39.15
77889;BME280;67082;41.704;44.768;2023-02-08T11:24:34;95625.91;;;8.00;38.83
77889;BME280;67082;41.704;44.768;2023-02-08T11:29:48;95650.47;;;7.66;39.27
77889;BME280;67082;41.704;44.768;2023-02-08T11:32:45;95651.91;;;7.70;39.26
77889;BME280;67082;41.704;44.768;2023-02-08T11:35:22;95640.34;;;7.75;38.82
77889;BME280;67082;41.704;44.768;2023-02-08T11:37:53;95640.06;;;7.57;40.23
77889;BME280;67082;41.704;44.768;2023-02-08T11:40:41;95669.91;;;7.59;40.52
77889;BME280;67082;41.704;44.768;2023-02-08T11:43:25;95655.19;;;7.65;39.60
77889;BME280;67082;41.704;44.768;2023-02-08T11:46:03;95650.25;;;7.89;39.08
77889;BME280;67082;41.704;44.768;2023-02-08T11:48:43;95649.41;;;8.04;39.26
77889;BME280;67082;41.704;44.768;2023-02-08T11:51:13;95654.34;;;7.97;38.76
77889;BME280;67082;41.704;44.768;2023-02-08T11:53:52;95662.94;;;7.99;38.59
77889;BME280;67082;41.704;44.768;2023-02-08T11:56:24;95661.50;;;7.66;39.41
77889;BME280;67082;41.704;44.768;2023-02-08T11:59:32;95674.78;;;7.39;39.34
77889;BME280;67082;41.704;44.768;2023-02-08T12:01:54;95655.34;;;7.74;39.69
77889;BME280;67082;41.704;44.768;2023-02-08T12:04:22;95673.88;;;7.74;39.47
77889;BME280;67082;41.704;44.768;2023-02-08T12:07:36;95662.84;;;8.02;38.41
77889;BME280;67082;41.704;44.768;2023-02-08T12:21:13;95674.03;;;7.83;37.86
77889;BME280;67082;41.704;44.768;2023-02-08T12:23:49;95683.16;;;7.80;38.01
77889;BME280;67082;41.704;44.768;2023-02-08T12:29:14;95689.09;;;7.94;38.54
77889;BME280;67082;41.704;44.768;2023-02-08T12:37:36;95689.06;;;7.66;39.53
77889;BME280;67082;41.704;44.768;2023-02-08T12:57:05;95698.94;;;7.79;39.98
77889;BME280;67082;41.704;44.768;2023-02-08T12:59:39;95707.28;;;7.92;39.84
77889;BME280;67082;41.704;44.768;2023-02-08T13:02:17;95705.84;;;7.87;39.66
77889;BME280;67082;41.704;44.768;2023-02-08T13:04:51;95713.28;;;7.74;39.95
77889;BME280;67082;41.704;44.768;2023-02-08T13:07:33;95698.69;;;7.90;39.87
77889;BME280;67082;41.704;44.768;2023-02-08T13:12:57;95707.75;;;7.74;40.67
77889;BME280;67082;41.704;44.768;2023-02-08T13:15:38;95716.44;;;7.73;40.67
77889;BME280;67082;41.704;44.768;2023-02-08T13:18:20;95722.72;;;7.73;40.57
77889;BME280;67082;41.704;44.768;2023-02-08T13:20:52;95720.69;;;7.29;40.83
77889;BME280;67082;41.704;44.768;2023-02-08T13:26:15;95733.34;;;7.27;41.58
77889;BME280;67082;41.704;44.768;2023-02-08T13:28:50;95724.78;;;7.21;40.85
77889;BME280;67082;41.704;44.768;2023-02-08T13:31:22;95726.03;;;7.36;41.35
77889;BME280;67082;41.704;44.768;2023-02-08T13:34:05;95734.03;;;7.31;41.39
77889;BME280;67082;41.704;44.768;2023-02-08T13:36:38;95725.19;;;7.39;42.06
77889;BME280;67082;41.704;44.768;2023-02-08T13:42:03;95733.75;;;7.25;41.87
77889;BME280;67082;41.704;44.768;2023-02-08T13:44:36;95752.88;;;7.32;41.48
77889;BME280;67082;41.704;44.768;2023-02-08T13:47:06;95743.13;;;7.12;41.96
77889;BME280;67082;41.704;44.768;2023-02-08T13:49:41;95746.16;;;7.17;41.55
77889;BME280;67082;41.704;44.768;2023-02-08T13:52:11;95751.75;;;7.14;41.72
77889;BME280;67082;41.704;44.768;2023-02-08T13:54:39;95747.69;;;6.83;41.82
77889;BME280;67082;41.704;44.768;2023-02-08T13:57:51;95767.47;;;6.78;42.37
77889;BME280;67082;41.704;44.768;2023-02-08T14:00:32;95746.44;;;6.87;43.01
77889;BME280;67082;41.704;44.768;2023-02-08T14:05:52;95764.28;;;6.99;42.74
77889;BME280;67082;41.704;44.768;2023-02-08T14:13:58;95790.06;;;6.50;44.28
77889;BME280;67082;41.704;44.768;2023-02-08T14:16:35;95776.94;;;6.38;43.62
77889;BME280;67082;41.704;44.768;2023-02-08T14:24:44;95797.69;;;6.23;44.25
77889;BME280;67082;41.704;44.768;2023-02-08T14:30:02;95813.13;;;6.17;44.57
77889;BME280;67082;41.704;44.768;2023-02-08T14:32:37;95805.97;;;6.42;44.30
77889;BME280;67082;41.704;44.768;2023-02-08T14:37:41;95811.16;;;6.37;44.76
77889;BME280;67082;41.704;44.768;2023-02-08T14:42:59;95819.41;;;6.37;44.12
77889;BME280;67082;41.704;44.768;2023-02-08T14:45:36;95813.78;;;6.44;44.52
77889;BME280;67082;41.704;44.768;2023-02-08T14:48:24;95829.53;;;6.43;44.51
77889;BME280;67082;41.704;44.768;2023-02-08T14:53:42;95829.97;;;6.19;44.89
77889;BME280;67082;41.704;44.768;2023-02-08T14:56:29;95830.19;;;6.51;47.46
77889;BME280;67082;41.704;44.768;2023-02-08T14:59:05;95843.84;;;6.35;45.63
77889;BME280;67082;41.704;44.768;2023-02-08T15:01:47;95850.28;;;6.25;44.89
77889;BME280;67082;41.704;44.768;2023-02-08T15:04:19;95842.72;;;6.09;45.36
77889;BME280;67082;41.704;44.768;2023-02-08T15:09:37;95861.00;;;6.19;44.54
77889;BME280;67082;41.704;44.768;2023-02-08T15:12:31;95850.16;;;6.09;44.70
77889;BME280;67082;41.704;44.768;2023-02-08T15:15:01;95847.34;;;5.89;45.11
77889;BME280;67082;41.704;44.768;2023-02-08T15:17:40;95854.31;;;5.71;44.90
77889;BME280;67082;41.704;44.768;2023-02-08T15:20:23;95847.16;;;5.77;44.84
77889;BME280;67082;41.704;44.768;2023-02-08T15:23:15;95859.03;;;5.97;44.65
77889;BME280;67082;41.704;44.768;2023-02-08T15:26:03;95861.22;;;5.56;44.97
77889;BME280;67082;41.704;44.768;2023-02-08T15:28:35;95874.75;;;5.70;45.02
77889;BME280;67082;41.704;44.768;2023-02-08T15:31:09;95888.78;;;5.49;46.06
77889;BME280;67082;41.704;44.768;2023-02-08T15:33:41;95873.50;;;5.48;45.76
77889;BME280;67082;41.704;44.768;2023-02-08T15:36:17;95883.66;;;5.77;46.04
77889;BME280;67082;41.704;44.768;2023-02-08T15:38:48;95904.81;;;5.84;46.26
77889;BME280;67082;41.704;44.768;2023-02-08T15:41:31;95893.72;;;5.61;46.94
77889;BME280;67082;41.704;44.768;2023-02-08T15:44:22;95896.06;;;5.62;47.34
77889;BME280;67082;41.704;44.768;2023-02-08T15:46:52;95898.34;;;5.67;46.57
77889;BME280;67082;41.704;44.768;2023-02-08T15:49:43;95911.00;;;5.61;47.18
77889;BME280;67082;41.704;44.768;2023-02-08T15:52:19;95915.25;;;5.66;47.02